Time;durP1;ratioP1;P1;durP2;ratioP2;P2;SDS_P1;SDS_P2;PMS_P1;PMS_P2;Temp;Humidity;BMP_temperature;BMP_pressure;BME280_temperature;BME280_humidity;BME280_pressure;Samples;Min_cycle;Max_cycle;Signal;HPM_P1;HPM_P2
2022/04/01 00:00:10;;;;;;;13.33;10.90;;;5.60;99.90;;;;;;5009341;28;20836;-69
2022/04/01 00:02:37;;;;;;;13.40;10.83;;;5.60;99.90;;;;;;5007023;28;20210;-69
2022/04/01 00:05:03;;;;;;;14.97;11.50;;;5.60;99.90;;;;;;5005881;28;20454;-69
2022/04/01 00:07:29;;;;;;;11.73;9.10;;;5.70;99.90;;;;;;5007727;28;21024;-69
2022/04/01 00:09:55;;;;;;;10.73;9.50;;;5.70;99.90;;;;;;5008176;28;20525;-69
2022/04/01 00:12:20;;;;;;;15.33;12.10;;;5.70;99.90;;;;;;5007783;28;20958;-69
2022/04/01 00:14:46;;;;;;;11.90;9.47;;;5.70;99.90;;;;;;5005977;28;20190;-68
2022/04/01 00:17:11;;;;;;;12.70;9.63;;;5.70;99.90;;;;;;5007094;28;20740;-69
2022/04/01 00:19:37;;;;;;;13.20;10.20;;;5.70;99.90;;;;;;5008158;28;20587;-69
2022/04/01 00:22:04;;;;;;;11.83;10.00;;;5.70;99.90;;;;;;5004920;28;20195;-68
2022/04/01 00:24:30;;;;;;;16.47;13.07;;;5.70;99.90;;;;;;5004721;28;20294;-69
2022/04/01 00:26:55;;;;;;;12.87;9.80;;;5.70;99.90;;;;;;5003863;28;20434;-69
2022/04/01 00:29:21;;;;;;;13.97;10.70;;;5.70;99.90;;;;;;5005209;28;20196;-68
2022/04/01 00:32:01;;;;;;;11.53;9.83;;;5.70;99.90;;;;;;5006012;28;20650;-69
2022/04/01 00:34:27;;;;;;;12.37;10.20;;;5.70;99.90;;;;;;5006060;28;20690;-70
2022/04/01 00:36:53;;;;;;;16.20;11.37;;;5.70;99.90;;;;;;5003396;28;20809;-69
2022/04/01 00:39:20;;;;;;;16.10;11.13;;;5.80;99.90;;;;;;5006834;28;20441;-69
2022/04/01 00:41:47;;;;;;;13.60;10.47;;;5.80;99.90;;;;;;5006382;28;20552;-68
2022/04/01 00:44:15;;;;;;;13.10;10.10;;;5.80;99.90;;;;;;5007719;28;20465;-68
2022/04/01 00:46:46;;;;;;;10.63;8.97;;;5.90;99.90;;;;;;5008680;28;20485;-69
2022/04/01 00:49:12;;;;;;;15.10;10.50;;;5.90;99.90;;;;;;5007951;28;21019;-69
2022/04/01 00:51:41;;;;;;;15.40;10.30;;;5.80;99.90;;;;;;5007108;28;20448;-69
2022/04/01 00:54:07;;;;;;;16.47;11.60;;;5.70;99.90;;;;;;5003650;28;20469;-68
2022/04/01 00:56:36;;;;;;;12.60;10.20;;;5.80;99.90;;;;;;5008433;28;20561;-68
2022/04/01 00:59:03;;;;;;;13.50;10.40;;;5.80;99.90;;;;;;5007805;28;20990;-69
2022/04/01 01:01:31;;;;;;;13.00;10.17;;;5.80;99.90;;;;;;5008829;28;20466;-69
2022/04/01 01:04:03;;;;;;;15.80;10.83;;;5.80;99.90;;;;;;5008167;28;20893;-69
2022/04/01 01:06:30;;;;;;;11.97;9.80;;;5.90;99.90;;;;;;5008908;28;20960;-69
2022/04/01 01:08:57;;;;;;;14.33;10.73;;;5.70;99.90;;;;;;5008114;28;20444;-69
2022/04/01 01:11:22;;;;;;;11.60;9.10;;;5.80;99.90;;;;;;5007519;28;20500;-69
2022/04/01 01:13:48;;;;;;;11.27;10.03;;;5.70;99.90;;;;;;5009033;28;20983;-69
2022/04/01 01:16:14;;;;;;;10.50;8.27;;;5.70;99.90;;;;;;5011409;28;20187;-69
2022/04/01 01:18:39;;;;;;;14.77;10.73;;;5.70;99.90;;;;;;5012345;28;20444;-69
2022/04/01 01:21:09;;;;;;;11.90;10.07;;;5.70;99.90;;;;;;5008381;28;20672;-70
2022/04/01 01:23:36;;;;;;;12.60;9.03;;;5.80;99.90;;;;;;5009707;28;20194;-69
2022/04/01 01:26:02;;;;;;;12.23;9.10;;;5.70;99.90;;;;;;5011049;28;20787;-69
2022/04/01 01:28:28;;;;;;;13.57;10.40;;;5.60;99.90;;;;;;5009419;28;20464;-69
2022/04/01 01:30:54;;;;;;;11.37;10.17;;;5.60;99.90;;;;;;5009251;28;20521;-69
2022/04/01 01:33:20;;;;;;;14.60;9.90;;;5.60;99.90;;;;;;5008126;28;20214;-69
2022/04/01 01:35:46;;;;;;;14.67;10.53;;;5.60;99.90;;;;;;5013785;28;20545;-69
2022/04/01 01:38:15;;;;;;;11.73;10.53;;;5.50;99.90;;;;;;5010162;28;20198;-69
2022/04/01 01:40:40;;;;;;;13.27;10.60;;;5.60;99.90;;;;;;5011505;28;21002;-69
2022/04/01 01:43:06;;;;;;;14.03;10.03;;;5.70;99.90;;;;;;5008081;28;20473;-69
2022/04/01 01:45:32;;;;;;;12.87;10.70;;;5.70;99.90;;;;;;5010332;28;20179;-68
2022/04/01 01:47:58;;;;;;;13.70;11.53;;;5.70;99.90;;;;;;5012809;28;20437;-69
2022/04/01 01:55:51;;;;;;;14.43;12.10;;;5.60;99.90;;;;;;5006979;28;20932;-69
2022/04/01 01:58:17;;;;;;;12.33;11.13;;;5.80;99.90;;;;;;5010150;28;20475;-69
2022/04/01 02:00:43;;;;;;;13.03;11.40;;;5.80;99.90;;;;;;5011087;28;20278;-70
2022/04/01 02:03:10;;;;;;;15.87;12.20;;;5.80;99.90;;;;;;5009484;28;20611;-67
2022/04/01 02:05:35;;;;;;;13.83;11.50;;;5.80;99.90;;;;;;5010823;28;20663;-69
2022/04/01 02:08:02;;;;;;;16.17;12.03;;;5.80;99.90;;;;;;5011657;28;20472;-70
2022/04/01 02:10:28;;;;;;;15.23;11.90;;;6.00;99.90;;;;;;5012460;28;20179;-69
2022/04/01 02:12:53;;;;;;;19.33;14.93;;;5.80;99.90;;;;;;5012534;28;20441;-69
2022/04/01 02:15:20;;;;;;;18.53;12.63;;;5.80;99.90;;;;;;5011676;28;20308;-69
2022/04/01 02:17:46;;;;;;;15.77;12.67;;;5.90;99.90;;;;;;5012318;28;20210;-69
2022/04/01 02:20:11;;;;;;;16.77;13.33;;;5.80;99.90;;;;;;5011720;28;20919;-70
2022/04/01 02:22:38;;;;;;;15.50;11.57;;;5.90;99.90;;;;;;5012848;28;20739;-69
2022/04/01 02:25:07;;;;;;;15.93;13.63;;;5.90;99.90;;;;;;5011658;28;20704;-68
2022/04/01 02:27:33;;;;;;;17.40;12.97;;;5.90;99.90;;;;;;5009125;28;20434;-70
2022/04/01 02:29:59;;;;;;;16.70;14.10;;;5.90;99.90;;;;;;4999660;28;20450;-69
2022/04/01 02:32:25;;;;;;;15.87;13.27;;;5.90;99.90;;;;;;5005707;28;20439;-70
2022/04/01 02:34:51;;;;;;;16.00;13.00;;;5.90;99.90;;;;;;5012054;28;20990;-70
2022/04/01 02:37:21;;;;;;;16.80;13.20;;;5.90;99.90;;;;;;5004195;28;20238;-69
2022/04/01 02:39:47;;;;;;;15.70;13.27;;;6.00;99.90;;;;;;5002180;28;20464;-68
2022/04/01 02:42:13;;;;;;;18.20;13.20;;;5.90;99.90;;;;;;5005056;28;20509;-69
2022/04/01 02:44:39;;;;;;;15.70;14.10;;;5.80;99.90;;;;;;5012334;28;20461;-68
2022/04/01 02:47:06;;;;;;;15.47;13.07;;;5.80;99.90;;;;;;5012606;28;20179;-69
2022/04/01 02:49:32;;;;;;;17.43;13.57;;;6.10;99.90;;;;;;5011139;28;20438;-70
2022/04/01 02:51:58;;;;;;;21.17;15.20;;;5.70;99.90;;;;;;5007492;28;20445;-69
2022/04/01 02:54:23;;;;;;;17.37;13.40;;;5.60;99.90;;;;;;5008277;28;20218;-69
2022/04/01 02:56:49;;;;;;;37.53;22.60;;;5.60;99.90;;;;;;5004873;28;20182;-69
2022/04/01 02:59:14;;;;;;;32.63;23.13;;;5.60;99.90;;;;;;5008297;28;20201;-69
2022/04/01 03:01:40;;;;;;;31.67;21.67;;;5.50;99.90;;;;;;5011363;28;20238;-69
2022/04/01 03:04:11;;;;;;;29.47;20.30;;;5.40;99.90;;;;;;5011007;28;20195;-69
2022/04/01 03:06:42;;;;;;;39.07;25.80;;;5.40;99.90;;;;;;5011336;28;20908;-69
2022/04/01 03:09:08;;;;;;;40.00;26.70;;;5.40;99.90;;;;;;5011866;28;20430;-69
2022/04/01 03:11:35;;;;;;;47.63;30.97;;;5.30;99.90;;;;;;5010982;28;20453;-70
2022/04/01 03:14:02;;;;;;;43.27;27.57;;;5.30;99.90;;;;;;5011438;28;20607;-69
2022/04/01 03:16:27;;;;;;;39.97;26.53;;;5.20;99.90;;;;;;5010396;28;20447;-70
2022/04/01 03:18:57;;;;;;;35.13;23.27;;;5.10;99.90;;;;;;5011736;28;20444;-69
2022/04/01 03:21:24;;;;;;;32.00;24.13;;;5.00;99.90;;;;;;5011023;28;20590;-69
2022/04/01 03:23:50;;;;;;;37.00;23.63;;;5.10;99.90;;;;;;5011219;28;20478;-69
2022/04/01 03:26:15;;;;;;;36.07;22.60;;;5.20;99.90;;;;;;5001223;28;20945;-69
2022/04/01 03:28:41;;;;;;;35.30;24.40;;;5.10;99.90;;;;;;5002096;28;20509;-69
2022/04/01 03:31:09;;;;;;;33.17;22.40;;;5.00;99.90;;;;;;5006015;28;20713;-69
2022/04/01 03:33:36;;;;;;;30.10;21.10;;;5.00;99.90;;;;;;5004143;28;20705;-69
2022/04/01 03:36:04;;;;;;;28.70;19.10;;;5.00;99.90;;;;;;5009206;28;20445;-69
2022/04/01 03:38:30;;;;;;;26.60;19.80;;;5.00;99.90;;;;;;5005804;28;20426;-69
2022/04/01 03:40:57;;;;;;;23.93;18.33;;;5.00;99.90;;;;;;5006040;28;20966;-69
2022/04/01 03:43:24;;;;;;;26.67;21.07;;;4.90;99.90;;;;;;5011130;28;20976;-69
2022/04/01 03:45:54;;;;;;;25.47;18.53;;;4.90;99.90;;;;;;5010798;28;20948;-69
2022/04/01 03:48:38;;;;;;;23.63;17.97;;;4.90;99.90;;;;;;5009990;28;20442;-69
2022/04/01 03:51:04;;;;;;;25.07;16.50;;;4.80;99.90;;;;;;5003833;28;20433;-69
2022/04/01 03:53:34;;;;;;;23.53;16.30;;;4.80;99.90;;;;;;5009241;28;20489;-69
2022/04/01 03:56:01;;;;;;;26.20;16.30;;;4.90;99.90;;;;;;5008925;28;20449;-68
2022/04/01 03:58:32;;;;;;;23.13;15.60;;;4.80;99.90;;;;;;5010104;28;20881;-68
2022/04/01 04:01:00;;;;;;;20.10;16.00;;;4.90;99.90;;;;;;5009870;28;20485;-67
2022/04/01 04:03:27;;;;;;;20.53;14.60;;;4.80;99.90;;;;;;5009511;28;20564;-67
2022/04/01 04:05:53;;;;;;;24.83;15.93;;;4.90;99.90;;;;;;5010103;28;20449;-67
2022/04/01 04:08:22;;;;;;;20.20;15.30;;;4.70;99.90;;;;;;5006468;28;21023;-67
2022/04/01 04:10:48;;;;;;;17.03;13.07;;;4.80;99.90;;;;;;5010215;28;20448;-68
2022/04/01 04:13:16;;;;;;;18.03;13.93;;;4.90;99.90;;;;;;5010321;28;20971;-67
2022/04/01 04:15:51;;;;;;;14.50;11.07;;;4.90;99.90;;;;;;5004845;28;20436;-67
2022/04/01 04:18:19;;;;;;;16.77;11.80;;;4.90;99.90;;;;;;5001236;28;20438;-68
2022/04/01 04:21:13;;;;;;;16.70;12.07;;;4.80;99.90;;;;;;5003126;28;20872;-67
2022/04/01 04:23:47;;;;;;;14.27;11.47;;;4.70;99.90;;;;;;5001325;28;20470;-67
2022/04/01 04:26:24;;;;;;;17.23;12.63;;;4.70;99.90;;;;;;5000421;28;20437;-67
2022/04/01 04:28:59;;;;;;;14.50;12.20;;;4.70;99.90;;;;;;5003586;28;20426;-68
2022/04/01 04:31:29;;;;;;;16.60;11.90;;;4.70;99.90;;;;;;5008753;28;20445;-68
2022/04/01 04:33:56;;;;;;;15.27;12.30;;;4.70;99.90;;;;;;5008685;28;20462;-68
2022/04/01 04:36:36;;;;;;;16.33;11.93;;;4.70;99.90;;;;;;5008566;28;20446;-68
2022/04/01 04:39:04;;;;;;;16.77;12.10;;;4.60;99.90;;;;;;5009842;28;20433;-68
2022/04/01 04:41:32;;;;;;;14.90;11.10;;;4.50;99.90;;;;;;5000280;28;20496;-68
2022/04/01 04:43:58;;;;;;;17.90;12.20;;;4.40;99.90;;;;;;5001496;28;20449;-68
2022/04/01 04:46:25;;;;;;;15.13;12.63;;;4.40;99.90;;;;;;5006812;28;20444;-67
2022/04/01 04:48:53;;;;;;;16.57;12.23;;;4.40;99.90;;;;;;5004660;28;20438;-68
2022/04/01 04:51:23;;;;;;;15.27;11.40;;;4.30;99.90;;;;;;5000756;28;20434;-67
2022/04/01 04:53:50;;;;;;;13.13;10.50;;;4.30;99.90;;;;;;5013256;28;20466;-68
2022/04/01 04:56:17;;;;;;;13.43;10.93;;;4.40;99.90;;;;;;5011473;28;20434;-68
2022/04/01 04:58:44;;;;;;;14.17;11.67;;;4.50;99.90;;;;;;4999691;28;20998;-68
2022/04/01 05:01:34;;;;;;;15.20;10.23;;;4.70;99.90;;;;;;5002604;28;20477;-67
2022/04/01 05:04:29;;;;;;;14.20;9.90;;;4.50;99.90;;;;;;5003762;28;20547;-67
2022/04/01 05:07:06;;;;;;;13.73;11.40;;;4.50;99.90;;;;;;5009013;28;20433;-68
2022/04/01 05:09:40;;;;;;;13.07;9.83;;;4.50;99.90;;;;;;5004907;28;20433;-68
2022/04/01 05:12:32;;;;;;;15.37;10.50;;;4.50;99.90;;;;;;5012274;28;20833;-68
2022/04/01 05:15:01;;;;;;;14.10;12.20;;;4.40;99.90;;;;;;4996822;28;20454;-67
2022/04/01 05:17:36;;;;;;;13.17;10.33;;;4.30;99.90;;;;;;5011003;28;20437;-68
2022/04/01 05:20:15;;;;;;;12.53;9.83;;;4.80;99.90;;;;;;5008231;28;20799;-68
2022/04/01 05:23:18;;;;;;;15.20;10.63;;;4.30;99.90;;;;;;5006250;28;20599;-68
2022/04/01 05:25:46;;;;;;;12.97;10.07;;;4.30;99.90;;;;;;5013173;28;20524;-68
2022/04/01 05:28:21;;;;;;;15.83;11.50;;;4.30;99.90;;;;;;5008271;28;20430;-68
2022/04/01 05:31:12;;;;;;;13.60;10.60;;;4.30;99.90;;;;;;5029184;28;20843;-68
2022/04/01 05:34:03;;;;;;;13.47;9.57;;;4.20;99.90;;;;;;4997933;28;20481;-68
2022/04/01 05:36:30;;;;;;;15.00;11.83;;;4.30;99.90;;;;;;5011917;28;20433;-68
2022/04/01 05:38:57;;;;;;;12.97;10.57;;;4.30;99.90;;;;;;5009154;28;20525;-68
2022/04/01 05:41:23;;;;;;;12.80;10.70;;;4.20;99.90;;;;;;5007818;28;20526;-68
2022/04/01 05:43:50;;;;;;;15.33;11.60;;;4.10;99.90;;;;;;5005091;28;20512;-67
2022/04/01 05:46:17;;;;;;;15.50;12.30;;;4.10;99.90;;;;;;5010592;28;20534;-68
2022/04/01 05:48:43;;;;;;;14.90;10.70;;;4.20;99.90;;;;;;5012937;28;20978;-67
2022/04/01 05:51:13;;;;;;;12.33;9.90;;;4.20;99.90;;;;;;5010738;28;20430;-68
2022/04/01 05:53:39;;;;;;;10.60;9.50;;;4.20;99.90;;;;;;5011609;28;20473;-67
2022/04/01 05:56:07;;;;;;;14.80;10.40;;;4.10;99.90;;;;;;5010524;28;20453;-68
2022/04/01 05:58:33;;;;;;;15.20;12.00;;;4.10;99.90;;;;;;5010569;28;20437;-68
2022/04/01 06:01:17;;;;;;;13.63;10.17;;;4.00;99.90;;;;;;5008858;28;20492;-68
2022/04/01 06:04:07;;;;;;;14.20;10.97;;;4.00;99.90;;;;;;5005702;28;20233;-68
2022/04/01 06:06:41;;;;;;;12.80;10.20;;;4.10;99.90;;;;;;5008484;28;20442;-68
2022/04/01 06:09:17;;;;;;;15.30;11.47;;;4.00;99.90;;;;;;5007155;28;20781;-68
2022/04/01 06:12:12;;;;;;;12.97;10.50;;;4.00;99.90;;;;;;5013136;28;20476;-68
2022/04/01 06:15:14;;;;;;;16.57;12.70;;;4.10;99.90;;;;;;5008562;28;20450;-68
2022/04/01 06:17:46;;;;;;;14.43;11.07;;;4.10;99.90;;;;;;5007516;28;20437;-67
2022/04/01 06:20:15;;;;;;;15.43;11.80;;;4.10;99.90;;;;;;5011850;28;20430;-67
2022/04/01 06:22:55;;;;;;;14.50;12.90;;;4.10;99.90;;;;;;5012194;28;21038;-68
2022/04/01 06:25:29;;;;;;;14.63;11.70;;;4.20;99.90;;;;;;5006442;28;20834;-68
2022/04/01 06:28:26;;;;;;;17.30;13.20;;;4.10;99.90;;;;;;5012333;28;20441;-68
2022/04/01 06:31:02;;;;;;;15.30;12.73;;;4.30;99.90;;;;;;4991147;28;20485;-69
2022/04/01 06:33:37;;;;;;;15.13;12.97;;;4.40;99.90;;;;;;4979934;28;21028;-68
2022/04/01 06:36:05;;;;;;;13.10;11.70;;;4.30;99.90;;;;;;5003312;28;20433;-67
2022/04/01 06:38:49;;;;;;;15.97;12.27;;;3.90;99.90;;;;;;5002856;28;20907;-68
2022/04/01 06:41:23;;;;;;;13.87;11.20;;;4.30;99.90;;;;;;5006198;28;20536;-68
2022/04/01 06:43:49;;;;;;;15.60;11.97;;;5.20;99.90;;;;;;5004281;28;20448;-67
2022/04/01 06:46:15;;;;;;;15.00;12.47;;;4.30;99.90;;;;;;5010700;28;20494;-66
2022/04/01 06:48:43;;;;;;;14.83;12.13;;;4.20;99.90;;;;;;5012064;28;20233;-67
2022/04/01 06:51:10;;;;;;;13.70;10.50;;;4.20;99.90;;;;;;5007074;28;20440;-69
2022/04/01 06:53:36;;;;;;;12.33;11.00;;;4.20;99.90;;;;;;5012318;28;20852;-68
2022/04/01 06:56:03;;;;;;;20.23;14.90;;;4.30;99.90;;;;;;5005468;28;20448;-67
2022/04/01 06:58:30;;;;;;;17.23;13.83;;;4.30;99.90;;;;;;5006697;28;20453;-69
2022/04/01 07:00:56;;;;;;;14.60;12.13;;;4.30;99.90;;;;;;5006629;28;20481;-67
2022/04/01 07:03:21;;;;;;;14.43;12.63;;;4.30;99.90;;;;;;5004877;28;21066;-67
2022/04/01 07:05:47;;;;;;;17.23;13.47;;;4.30;99.90;;;;;;5010515;28;20186;-67
2022/04/01 07:08:15;;;;;;;15.73;13.73;;;4.20;99.90;;;;;;5000929;28;20228;-67
2022/04/01 07:10:41;;;;;;;15.90;12.30;;;4.10;99.90;;;;;;5006531;28;20966;-67
2022/04/01 07:13:06;;;;;;;17.73;13.63;;;4.20;99.90;;;;;;5002352;28;20479;-67
2022/04/01 07:15:32;;;;;;;16.23;12.80;;;4.20;99.90;;;;;;5008031;28;20276;-67
2022/04/01 07:17:58;;;;;;;15.33;12.83;;;4.20;99.90;;;;;;5004162;28;20190;-67
2022/04/01 07:20:25;;;;;;;16.70;13.93;;;4.20;99.90;;;;;;5000434;28;20182;-67
2022/04/01 07:22:52;;;;;;;17.87;14.07;;;4.30;99.90;;;;;;4996448;28;20860;-67
2022/04/01 07:25:17;;;;;;;15.80;12.53;;;4.40;99.90;;;;;;5004815;28;20897;-67
2022/04/01 07:27:43;;;;;;;17.40;13.13;;;4.30;99.90;;;;;;5002954;28;20515;-67
2022/04/01 07:30:09;;;;;;;17.57;13.37;;;4.20;99.90;;;;;;5001272;28;20344;-67
2022/04/01 07:32:36;;;;;;;16.30;13.10;;;4.30;99.90;;;;;;5001025;28;20210;-67
2022/04/01 07:35:05;;;;;;;15.37;12.60;;;4.30;99.90;;;;;;5006233;28;20203;-66
2022/04/01 07:37:31;;;;;;;14.83;11.93;;;4.30;99.90;;;;;;5002887;28;20437;-67
2022/04/01 07:39:57;;;;;;;15.97;13.07;;;4.20;99.90;;;;;;5006886;28;20442;-66
2022/04/01 07:42:24;;;;;;;17.90;14.13;;;4.20;99.90;;;;;;5000136;28;20476;-66
2022/04/01 07:44:50;;;;;;;14.80;12.77;;;4.10;99.90;;;;;;4995425;28;20595;-66
2022/04/01 07:47:18;;;;;;;15.17;13.37;;;4.30;99.90;;;;;;4999766;28;20445;-67
2022/04/01 07:49:45;;;;;;;18.63;14.33;;;4.30;99.90;;;;;;4999371;28;20450;-66
2022/04/01 07:52:13;;;;;;;18.97;13.60;;;4.20;99.90;;;;;;4997413;28;20505;-66
2022/04/01 07:54:40;;;;;;;17.10;13.20;;;4.30;99.90;;;;;;4997300;28;21003;-66
2022/04/01 07:57:07;;;;;;;20.10;12.70;;;4.30;99.90;;;;;;5002118;28;20444;-67
2022/04/01 07:59:33;;;;;;;13.77;11.47;;;4.40;99.90;;;;;;5000194;28;20441;-66
2022/04/01 08:01:59;;;;;;;15.37;12.90;;;4.40;99.90;;;;;;4998896;28;20520;-66
2022/04/01 08:04:28;;;;;;;15.27;12.93;;;4.40;99.90;;;;;;4996801;28;20808;-66
2022/04/01 08:06:54;;;;;;;15.90;12.73;;;4.40;99.90;;;;;;5003167;28;20441;-66
2022/04/01 08:09:20;;;;;;;15.03;12.17;;;4.50;99.90;;;;;;5005192;28;20463;-66
2022/04/01 08:11:46;;;;;;;17.33;14.10;;;4.60;99.90;;;;;;5001551;28;20456;-66
2022/04/01 08:14:12;;;;;;;14.53;12.30;;;4.60;99.90;;;;;;4999856;28;20458;-66
2022/04/01 08:16:37;;;;;;;17.70;14.53;;;4.40;99.90;;;;;;5004561;28;20182;-66
2022/04/01 08:19:03;;;;;;;15.70;12.50;;;4.50;99.90;;;;;;5002676;28;20187;-66
2022/04/01 08:21:30;;;;;;;15.43;13.33;;;4.50;99.90;;;;;;5002019;28;21084;-66
2022/04/01 08:23:56;;;;;;;19.00;15.13;;;4.50;99.90;;;;;;5007094;28;20229;-67
2022/04/01 08:26:22;;;;;;;19.17;15.17;;;4.50;99.90;;;;;;5000408;28;20541;-66
2022/04/01 08:28:47;;;;;;;16.33;14.20;;;4.50;99.90;;;;;;5004318;28;20506;-66
2022/04/01 08:31:13;;;;;;;18.77;14.77;;;4.60;99.90;;;;;;5004542;28;20175;-66
2022/04/01 08:33:39;;;;;;;16.67;13.67;;;4.50;99.90;;;;;;5003399;28;20221;-66
2022/04/01 08:36:05;;;;;;;16.10;13.10;;;4.50;99.90;;;;;;5009112;28;20186;-66
2022/04/01 08:38:31;;;;;;;17.83;14.17;;;4.40;99.90;;;;;;5003098;28;20210;-66
2022/04/01 08:40:56;;;;;;;21.40;16.60;;;4.50;99.90;;;;;;4999851;28;20485;-66
2022/04/01 08:43:27;;;;;;;17.80;13.73;;;4.50;99.90;;;;;;5007504;28;20210;-66
2022/04/01 08:45:54;;;;;;;17.83;14.77;;;4.60;99.90;;;;;;5002753;28;20271;-67
2022/04/01 08:48:19;;;;;;;17.17;14.37;;;4.70;99.90;;;;;;5001884;28;20439;-66
2022/04/01 08:50:45;;;;;;;16.83;13.63;;;4.70;99.90;;;;;;5001661;28;20958;-66
2022/04/01 08:53:10;;;;;;;19.13;15.03;;;4.70;99.90;;;;;;4998498;28;20206;-66
2022/04/01 08:55:36;;;;;;;15.00;13.10;;;4.60;99.90;;;;;;4995706;28;20550;-66
2022/04/01 08:58:03;;;;;;;13.93;12.07;;;4.60;99.90;;;;;;5000847;28;20183;-66
2022/04/01 09:00:29;;;;;;;16.03;13.87;;;4.60;99.90;;;;;;5009212;28;20183;-67
2022/04/01 09:03:04;;;;;;;17.07;13.43;;;4.60;99.90;;;;;;5005228;28;20465;-66
2022/04/01 09:05:30;;;;;;;16.50;12.93;;;4.50;99.90;;;;;;5007160;28;20555;-66
2022/04/01 09:08:06;;;;;;;16.83;13.40;;;4.40;99.90;;;;;;5005738;28;20533;-66
2022/04/01 09:10:52;;;;;;;15.57;11.87;;;4.50;99.90;;;;;;5002272;28;20186;-66
2022/04/01 09:13:20;;;;;;;16.10;12.70;;;4.50;99.90;;;;;;5000269;28;20442;-66
2022/04/01 09:15:46;;;;;;;17.07;13.43;;;4.60;99.90;;;;;;5002757;28;20433;-66
2022/04/01 09:18:12;;;;;;;15.73;12.37;;;4.50;99.90;;;;;;5005845;28;20536;-66
2022/04/01 09:20:50;;;;;;;18.00;14.37;;;4.70;99.90;;;;;;5000337;28;20501;-66
2022/04/01 09:23:23;;;;;;;14.53;13.00;;;4.60;99.90;;;;;;4997550;28;20210;-66
2022/04/01 09:25:50;;;;;;;15.30;12.40;;;4.50;99.90;;;;;;4998475;28;20439;-66
2022/04/01 09:28:29;;;;;;;16.87;12.00;;;4.50;99.90;;;;;;4996164;28;20430;-66
2022/04/01 09:30:59;;;;;;;14.60;11.20;;;4.50;99.90;;;;;;4997028;28;20858;-66
2022/04/01 09:33:32;;;;;;;13.90;10.83;;;4.40;99.90;;;;;;5004243;28;20453;-66
2022/04/01 09:36:04;;;;;;;12.03;10.70;;;4.40;99.90;;;;;;5002854;28;20453;-66
2022/04/01 09:38:29;;;;;;;13.33;11.60;;;4.40;99.90;;;;;;5000171;28;20481;-66
2022/04/01 09:40:59;;;;;;;15.33;12.00;;;4.50;99.90;;;;;;5002305;28;20469;-66
2022/04/01 09:43:25;;;;;;;12.30;10.83;;;4.50;99.90;;;;;;4998658;28;20250;-66
2022/04/01 09:45:50;;;;;;;15.37;11.87;;;4.60;99.90;;;;;;4994161;28;20467;-65
2022/04/01 09:48:19;;;;;;;12.93;10.27;;;4.70;99.90;;;;;;4997582;28;20187;-66
2022/04/01 09:50:59;;;;;;;12.93;10.27;;;4.80;99.90;;;;;;5006540;28;20631;-69
2022/04/01 09:53:25;;;;;;;12.20;10.23;;;4.90;99.90;;;;;;5007355;28;20481;-69
2022/04/01 09:55:52;;;;;;;11.60;9.70;;;4.90;99.90;;;;;;5006259;28;20464;-67
2022/04/01 09:58:19;;;;;;;10.17;9.17;;;5.30;99.90;;;;;;5005525;28;20442;-66
2022/04/01 10:00:46;;;;;;;10.40;9.10;;;4.90;99.90;;;;;;5004429;28;20854;-66
2022/04/01 10:03:14;;;;;;;11.60;10.07;;;4.80;99.90;;;;;;5003607;28;20473;-66
2022/04/01 10:05:41;;;;;;;11.57;9.03;;;4.80;99.90;;;;;;5005289;28;20982;-66
2022/04/01 10:08:08;;;;;;;11.70;10.60;;;4.90;99.90;;;;;;5004274;28;21021;-66
2022/04/01 10:10:36;;;;;;;11.03;8.77;;;5.00;99.90;;;;;;5007080;28;20952;-66
2022/04/01 10:13:10;;;;;;;13.23;10.63;;;5.10;99.90;;;;;;4998473;28;20481;-66
2022/04/01 10:15:39;;;;;;;10.80;9.60;;;5.00;99.90;;;;;;5005633;28;20445;-66
2022/04/01 10:18:06;;;;;;;9.97;8.80;;;5.00;99.90;;;;;;5004076;28;20501;-66
2022/04/01 10:20:34;;;;;;;9.73;8.70;;;4.90;99.90;;;;;;5006545;28;20445;-67
2022/04/01 10:23:11;;;;;;;12.00;10.77;;;4.80;99.90;;;;;;5003655;28;21056;-66
2022/04/01 10:26:01;;;;;;;10.37;9.20;;;4.90;99.90;;;;;;4999825;28;20500;-66
2022/04/01 10:28:27;;;;;;;9.17;8.23;;;4.90;99.90;;;;;;5002599;28;20441;-66
2022/04/01 10:30:55;;;;;;;11.77;9.50;;;4.80;99.90;;;;;;4998886;28;20811;-66
2022/04/01 10:33:23;;;;;;;10.53;9.43;;;4.90;99.90;;;;;;5004459;28;20830;-66
2022/04/01 10:35:49;;;;;;;11.80;8.87;;;4.80;99.90;;;;;;5006476;28;20450;-66
2022/04/01 10:38:17;;;;;;;8.90;8.10;;;4.90;99.90;;;;;;5006683;28;20556;-66
2022/04/01 10:40:45;;;;;;;9.30;8.37;;;4.90;99.90;;;;;;5007491;28;20226;-65
2022/04/01 10:43:22;;;;;;;9.10;7.87;;;4.90;99.90;;;;;;5002492;28;20477;-66
2022/04/01 10:46:15;;;;;;;10.63;9.53;;;5.00;99.90;;;;;;5006342;28;20476;-66
2022/04/01 10:52:12;;;;;;;8.10;7.30;;;5.10;99.90;;;;;;4996280;28;20422;-66
2022/04/01 10:54:44;;;;;;;11.93;10.60;;;5.10;99.90;;;;;;5008527;28;20773;-66
2022/04/01 10:57:28;;;;;;;11.60;10.47;;;5.10;99.90;;;;;;5006081;28;20445;-66
2022/04/01 10:59:54;;;;;;;13.60;10.17;;;5.10;99.90;;;;;;5002787;28;20865;-66
2022/04/01 11:02:22;;;;;;;11.03;9.90;;;5.00;99.90;;;;;;5003406;28;20497;-65
2022/04/01 11:04:51;;;;;;;7.77;7.07;;;4.90;99.90;;;;;;5008362;28;20462;-65
2022/04/01 11:07:23;;;;;;;7.10;5.60;;;4.80;99.90;;;;;;5005845;28;20442;-65
2022/04/01 11:10:05;;;;;;;6.37;5.77;;;4.60;99.90;;;;;;5004507;28;20449;-65
2022/04/01 11:12:49;;;;;;;6.50;5.57;;;4.70;99.90;;;;;;5003896;28;20492;-65
2022/04/01 11:15:22;;;;;;;5.13;4.63;;;4.80;99.90;;;;;;5008654;28;20780;-65
2022/04/01 11:17:48;;;;;;;4.93;4.53;;;4.70;99.90;;;;;;5006672;28;20441;-65
2022/04/01 11:20:22;;;;;;;6.40;5.37;;;4.60;99.90;;;;;;5004327;28;20442;-65
2022/04/01 11:22:54;;;;;;;5.20;4.80;;;4.60;99.90;;;;;;5001391;28;20627;-66
2022/04/01 11:25:22;;;;;;;4.10;3.80;;;4.70;99.90;;;;;;5001028;28;20464;-66
2022/04/01 11:27:51;;;;;;;4.30;3.97;;;4.70;99.90;;;;;;5001685;28;20445;-66
2022/04/01 11:30:24;;;;;;;3.70;3.40;;;4.80;99.90;;;;;;5005557;28;21536;-66
2022/04/01 11:33:13;;;;;;;3.63;3.33;;;4.90;99.90;;;;;;4999669;28;20441;-66
2022/04/01 11:35:41;;;;;;;4.40;2.67;;;4.90;99.90;;;;;;5002518;28;20446;-65
2022/04/01 11:38:08;;;;;;;2.60;2.40;;;5.00;99.90;;;;;;4996021;28;20509;-65
2022/04/01 11:40:37;;;;;;;4.23;3.43;;;4.90;99.90;;;;;;4999062;28;20443;-65
2022/04/01 11:43:08;;;;;;;2.60;2.40;;;4.90;99.90;;;;;;4998969;28;20473;-65
2022/04/01 11:45:37;;;;;;;3.00;2.77;;;5.00;99.90;;;;;;5006343;28;20446;-65
2022/04/01 11:48:16;;;;;;;2.80;2.60;;;5.00;99.90;;;;;;4995990;28;20846;-65
2022/04/01 11:50:47;;;;;;;2.30;2.10;;;5.10;99.90;;;;;;5004872;28;20731;-65
2022/04/01 11:53:23;;;;;;;2.87;2.67;;;5.20;99.90;;;;;;4993301;28;20899;-65
2022/04/01 11:55:49;;;;;;;2.87;2.30;;;5.10;99.90;;;;;;4995957;28;22058;-65
2022/04/01 11:58:16;;;;;;;2.83;2.63;;;5.20;99.90;;;;;;5004767;28;20541;-65
2022/04/01 12:00:41;;;;;;;3.23;3.03;;;5.10;99.90;;;;;;5001964;28;20444;-65
2022/04/01 12:03:09;;;;;;;3.00;2.80;;;5.10;99.90;;;;;;5004594;28;20577;-65
2022/04/01 12:05:35;;;;;;;4.20;3.80;;;5.00;99.90;;;;;;5006953;28;20167;-66
2022/04/01 12:10:59;;;;;;;3.77;3.47;;;5.10;99.90;;;;;;5005380;28;20499;-65
2022/04/01 12:13:27;;;;;;;5.60;3.43;;;5.10;99.90;;;;;;5006089;28;20464;-65
2022/04/01 12:15:53;;;;;;;2.87;2.67;;;5.00;99.90;;;;;;5004714;28;20461;-66
2022/04/01 12:18:26;;;;;;;3.90;3.60;;;5.20;99.90;;;;;;5008115;28;20457;-65
2022/04/01 12:20:55;;;;;;;3.77;3.47;;;4.90;99.90;;;;;;5008118;28;20869;-66
2022/04/01 12:23:25;;;;;;;4.37;3.97;;;5.00;99.90;;;;;;5004501;28;20536;-66
2022/04/01 12:25:53;;;;;;;4.13;3.80;;;5.00;99.90;;;;;;5010057;28;20453;-65
2022/04/01 12:28:20;;;;;;;4.27;3.90;;;5.10;99.90;;;;;;5002885;28;20847;-65
2022/04/01 12:30:47;;;;;;;3.63;3.43;;;5.10;99.90;;;;;;5002132;28;20442;-65
2022/04/01 12:33:17;;;;;;;4.20;3.90;;;4.90;99.90;;;;;;5004140;28;20442;-65
2022/04/01 12:35:55;;;;;;;4.23;3.93;;;4.90;99.90;;;;;;5009036;28;20484;-65
2022/04/01 12:38:21;;;;;;;4.77;4.37;;;4.90;99.90;;;;;;5003002;28;20956;-65
2022/04/01 12:40:46;;;;;;;5.00;4.60;;;4.80;99.90;;;;;;5003563;28;20457;-66
2022/04/01 12:43:41;;;;;;;6.20;5.60;;;4.70;99.90;;;;;;5008039;28;20618;-65
2022/04/01 12:46:11;;;;;;;5.77;5.27;;;4.70;99.90;;;;;;5009552;28;20649;-65
2022/04/01 12:48:49;;;;;;;5.70;5.20;;;4.90;99.90;;;;;;5002574;28;20517;-66
2022/04/01 12:51:33;;;;;;;7.43;6.30;;;4.90;99.90;;;;;;5002385;28;20797;-66
2022/04/01 12:54:22;;;;;;;6.50;5.90;;;5.10;99.90;;;;;;5006636;28;20472;-66
2022/04/01 12:56:51;;;;;;;6.47;5.87;;;5.10;99.90;;;;;;4999338;28;20431;-66
2022/04/01 12:59:19;;;;;;;6.90;5.37;;;5.20;99.90;;;;;;5004067;28;20434;-66
2022/04/01 13:01:55;;;;;;;6.40;5.90;;;5.20;99.90;;;;;;5009440;28;20429;-66
2022/04/01 13:04:21;;;;;;;6.53;5.93;;;5.20;99.90;;;;;;5005716;28;20489;-66